Time;durP1;ratioP1;P1;durP2;ratioP2;P2;SDS_P1;SDS_P2;PMS_P1;PMS_P2;Temp;Humidity;BMP_temperature;BMP_pressure;BME280_temperature;BME280_humidity;BME280_pressure;Samples;Min_cycle;Max_cycle;Signal;HPM_P1;HPM_P2
2021/12/05 00:16:56;;;;;;;12.77;7.23;;;;;;;11.31;27.44;98797.91;5078248;28;20062;-78
2021/12/05 00:24:02;;;;;;;14.07;8.10;;;;;;;10.67;28.02;98806.50;5058545;28;20039;-78
2021/12/05 00:26:33;;;;;;;14.43;7.37;;;;;;;10.86;28.55;98801.50;5041571;28;20403;-79
2021/12/05 01:16:28;;;;;;;20.80;11.10;;;;;;;10.54;29.49;98782.38;5075579;28;20060;-78
2021/12/05 01:18:54;;;;;;;19.20;10.30;;;;;;;10.64;29.62;98790.94;5057680;28;20121;-77
2021/12/05 01:21:23;;;;;;;20.73;10.40;;;;;;;10.95;29.45;98778.34;5057694;28;20040;-77
2021/12/05 01:24:05;;;;;;;21.57;10.83;;;;;;;10.91;29.62;98761.13;5091218;28;20043;-78
2021/12/05 01:26:48;;;;;;;20.27;11.17;;;;;;;10.52;29.58;98787.84;5043572;28;20044;-76
2021/12/05 01:31:59;;;;;;;21.00;10.70;;;;;;;11.04;29.20;98793.22;5058259;28;20109;-77
2021/12/05 01:34:37;;;;;;;23.30;10.17;;;;;;;10.75;29.39;98766.59;5090164;28;20044;-77
2021/12/05 01:39:55;;;;;;;25.03;12.57;;;;;;;10.37;29.67;98765.75;5074183;28;20040;-77
2021/12/05 02:10:43;;;;;;;27.73;14.30;;;;;;;10.98;29.48;98794.75;5072386;28;20054;-77
2021/12/05 02:42:37;;;;;;;33.73;17.30;;;;;;;10.78;30.18;98782.97;5038164;28;20113;-77
2021/12/05 02:45:06;;;;;;;33.90;16.70;;;;;;;11.24;29.84;98776.53;5061419;28;20043;-78
2021/12/05 02:47:33;;;;;;;30.30;14.37;;;;;;;11.20;30.07;98783.22;5060940;28;20048;-76
2021/12/05 02:50:04;;;;;;;32.63;16.47;;;;;;;11.29;29.87;98775.97;5077401;28;20048;-76
2021/12/05 02:52:36;;;;;;;29.67;15.73;;;;;;;11.40;29.96;98787.00;5077388;28;20052;-78
2021/12/05 02:55:22;;;;;;;29.13;14.50;;;;;;;11.46;29.94;98791.56;5061040;28;20551;-76
2021/12/05 02:57:55;;;;;;;28.17;14.70;;;;;;;10.63;30.56;98778.63;5060631;28;20044;-76
2021/12/05 03:00:43;;;;;;;30.53;15.13;;;;;;;11.42;29.94;98781.50;5076728;28;20067;-77
2021/12/05 03:03:18;;;;;;;29.47;15.37;;;;;;;10.94;30.84;98787.31;5045420;28;20032;-76
2021/12/05 03:05:48;;;;;;;31.10;14.63;;;;;;;10.80;30.98;98764.22;5092421;28;20059;-76
2021/12/05 03:08:14;;;;;;;31.38;14.73;;;;;;;10.45;31.11;98783.44;5059000;28;20059;-77
2021/12/05 03:10:40;;;;;;;30.30;15.50;;;;;;;10.49;31.03;98779.41;5058786;28;20047;-77
2021/12/05 03:13:06;;;;;;;27.17;13.33;;;;;;;10.58;31.19;98776.53;5059413;28;20139;-77
2021/12/05 03:15:33;;;;;;;26.70;14.73;;;;;;;10.57;31.01;98785.50;5059837;28;20142;-77
2021/12/05 03:17:59;;;;;;;27.00;13.40;;;;;;;10.72;30.61;98794.31;5059122;28;20476;-77
2021/12/05 03:20:25;;;;;;;27.27;14.37;;;;;;;10.71;30.57;98789.19;5076888;28;20046;-76
2021/12/05 03:22:52;;;;;;;29.33;13.97;;;;;;;10.89;30.76;98793.19;5076003;28;20134;-77
2021/12/05 03:25:18;;;;;;;29.30;13.23;;;;;;;10.67;30.75;98778.09;5041937;28;20044;-77
2021/12/05 03:27:44;;;;;;;29.60;15.00;;;;;;;10.66;30.73;98796.84;5042136;28;20397;-76
2021/12/05 03:30:13;;;;;;;29.30;14.03;;;;;;;11.00;31.06;98792.75;5075808;28;20507;-78
2021/12/05 03:32:40;;;;;;;27.37;13.97;;;;;;;10.95;30.71;98794.28;5093917;28;20411;-77
2021/12/05 03:35:08;;;;;;;30.20;14.37;;;;;;;11.23;30.58;98797.97;5076211;28;20051;-77
2021/12/05 03:37:34;;;;;;;30.87;14.47;;;;;;;10.80;30.86;98796.06;5076081;28;20097;-77
2021/12/05 03:40:05;;;;;;;27.47;13.83;;;;;;;11.43;30.62;98801.75;5060389;28;20124;-76
2021/12/05 03:42:32;;;;;;;29.37;13.80;;;;;;;10.93;30.82;98807.75;5076549;28;20051;-76
2021/12/05 03:44:58;;;;;;;28.20;14.70;;;;;;;10.58;31.19;98803.06;5059320;28;20052;-77
2021/12/05 03:47:30;;;;;;;;;;;;;;;11.90;29.66;98803.00;5044686;28;20086;-77
2021/12/05 03:49:57;;;;;;;23.37;13.17;;;;;;;10.56;31.21;98806.91;5060192;28;19920;-77
2021/12/05 03:52:23;;;;;;;33.00;13.90;;;;;;;10.84;31.07;98808.00;5058844;28;20044;-77
2021/12/05 03:54:49;;;;;;;27.53;14.43;;;;;;;10.63;31.23;98816.66;5057699;28;20473;-77
2021/12/05 03:57:15;;;;;;;31.73;14.20;;;;;;;10.86;31.06;98824.56;5059095;28;20081;-77
2021/12/05 03:59:41;;;;;;;32.73;14.60;;;;;;;10.77;31.03;98826.50;5041637;28;20040;-78
2021/12/05 04:02:09;;;;;;;27.63;13.53;;;;;;;10.82;30.94;98820.63;5075058;28;20556;-77
2021/12/05 04:04:37;;;;;;;30.70;13.77;;;;;;;11.04;30.96;98825.09;5042011;28;20048;-78
2021/12/05 04:07:03;;;;;;;33.07;14.33;;;;;;;10.95;31.11;98820.84;5074865;28;20040;-77
2021/12/05 04:09:31;;;;;;;36.93;13.87;;;;;;;10.60;31.24;98821.47;5058983;28;20040;-76
2021/12/05 04:12:01;;;;;;;28.30;14.07;;;;;;;10.99;31.39;98814.19;5041165;28;20040;-76
2021/12/05 04:14:36;;;;;;;28.93;13.53;;;;;;;10.93;31.48;98817.56;5076103;28;20062;-78
2021/12/05 04:17:04;;;;;;;31.93;14.27;;;;;;;10.78;31.57;98798.91;5058680;28;20407;-76
2021/12/05 04:19:30;;;;;;;29.60;14.43;;;;;;;10.55;31.72;98835.28;5058143;28;20040;-78
2021/12/05 04:21:57;;;;;;;31.47;14.47;;;;;;;10.64;31.61;98820.94;5058168;28;20100;-78
2021/12/05 04:24:24;;;;;;;29.70;13.47;;;;;;;10.43;31.81;98810.16;5041366;28;20032;-77
2021/12/05 04:26:50;;;;;;;29.10;14.10;;;;;;;10.69;31.98;98837.16;5042456;28;20101;-77
2021/12/05 04:29:16;;;;;;;27.10;13.67;;;;;;;10.67;31.66;98838.38;5058975;28;20129;-78
2021/12/05 04:31:42;;;;;;;32.87;14.20;;;;;;;10.55;31.51;98837.13;5041850;28;20044;-77
2021/12/05 04:34:08;;;;;;;31.57;14.00;;;;;;;10.93;31.53;98839.63;5059700;28;20040;-77
2021/12/05 04:36:35;;;;;;;27.03;12.90;;;;;;;10.86;31.36;98835.19;5057857;28;20411;-78
2021/12/05 04:39:03;;;;;;;24.93;13.43;;;;;;;10.96;31.12;98838.44;5074379;28;20517;-77
2021/12/05 04:41:30;;;;;;;26.47;13.03;;;;;;;10.34;31.46;98807.72;5057841;28;20036;-77
2021/12/05 04:43:57;;;;;;;27.27;13.57;;;;;;;11.12;31.46;98847.09;5074667;28;20139;-78
2021/12/05 04:46:25;;;;;;;29.73;12.97;;;;;;;10.91;31.17;98822.22;5057864;28;20189;-77
2021/12/05 04:48:54;;;;;;;29.27;14.17;;;;;;;11.36;30.94;98838.06;5073573;28;20055;-77
2021/12/05 04:51:27;;;;;;;27.37;13.10;;;;;;;11.47;30.82;98842.94;5058210;28;20048;-76
2021/12/05 04:53:54;;;;;;;29.70;12.87;;;;;;;11.17;30.74;98846.53;5074001;28;20499;-77
2021/12/05 04:56:21;;;;;;;26.90;14.20;;;;;;;11.49;30.59;98849.72;5040914;28;20500;-77
2021/12/05 04:58:48;;;;;;;27.67;13.07;;;;;;;11.20;30.70;98846.19;5074165;28;20048;-77
2021/12/05 05:01:21;;;;;;;27.17;14.10;;;;;;;11.07;30.59;98788.34;5042392;28;20086;-77
2021/12/05 05:03:47;;;;;;;24.00;13.07;;;;;;;11.12;30.98;98843.59;5092107;28;20043;-77
2021/12/05 05:06:17;;;;;;;26.23;13.23;;;;;;;11.00;30.83;98837.91;5073856;28;20052;-77
2021/12/05 05:08:46;;;;;;;29.08;13.73;;;;;;;11.41;30.75;98827.69;5074869;28;20526;-76
2021/12/05 05:11:14;;;;;;;25.07;13.80;;;;;;;11.54;30.42;98849.16;5041189;28;20032;-78
2021/12/05 05:13:40;;;;;;;26.57;13.37;;;;;;;11.22;30.73;98855.66;5057777;28;20058;-77
2021/12/05 05:16:07;;;;;;;26.83;12.80;;;;;;;11.20;30.56;98868.28;5091693;28;20042;-77
2021/12/05 05:18:42;;;;;;;23.77;13.23;;;;;;;11.06;30.68;98862.91;5057008;28;20043;-77
2021/12/05 05:47:32;;;;;;;29.20;12.17;;;;;;;10.92;31.16;98892.94;5091134;28;20128;-77
2021/12/05 05:49:59;;;;;;;25.67;12.50;;;;;;;11.01;30.54;98878.59;5058929;28;20040;-78
2021/12/05 05:52:26;;;;;;;23.17;12.83;;;;;;;11.45;30.75;98898.13;5073838;28;20495;-77
2021/12/05 05:54:54;;;;;;;29.50;13.43;;;;;;;11.23;30.59;98896.31;5090320;28;20048;-78
2021/12/05 05:57:34;;;;;;;24.57;13.33;;;;;;;11.34;30.73;98903.88;5057637;28;20047;-78
2021/12/05 06:00:12;;;;;;;26.63;14.30;;;;;;;11.93;30.24;98902.94;5075580;28;20036;-77
2021/12/05 06:05:28;;;;;;;28.10;12.47;;;;;;;11.11;31.02;98908.38;5059825;28;20047;-78
2021/12/05 06:07:54;;;;;;;25.73;13.07;;;;;;;10.60;31.08;98870.09;5090751;28;20052;-78
2021/12/05 06:10:23;;;;;;;26.97;13.33;;;;;;;11.21;31.08;98875.25;5072854;28;20040;-77
2021/12/05 06:12:49;;;;;;;29.37;13.53;;;;;;;11.02;31.40;98890.88;5072947;28;20035;-78
2021/12/05 06:15:17;;;;;;;23.27;13.57;;;;;;;11.35;30.80;98894.88;5073158;28;20048;-77
2021/12/05 06:17:43;;;;;;;23.23;12.77;;;;;;;11.06;31.38;98893.00;5059256;28;20044;-77
2021/12/05 06:20:12;;;;;;;24.03;13.03;;;;;;;11.44;30.79;98899.94;5093376;28;20491;-78
2021/12/05 06:22:38;;;;;;;29.60;13.10;;;;;;;10.77;31.40;98892.06;5077314;28;20372;-77
2021/12/05 06:25:10;;;;;;;25.77;13.43;;;;;;;11.44;30.92;98901.78;5076797;28;20043;-77
2021/12/05 06:27:36;;;;;;;30.60;13.87;;;;;;;10.99;30.96;98904.50;5043579;28;20044;-78
2021/12/05 06:30:52;;;;;;;27.33;14.27;;;;;;;11.43;30.93;98900.13;5044043;28;20043;-78
2021/12/05 06:38:40;;;;;;;25.87;13.27;;;;;;;10.78;31.18;98912.31;5060663;28;20594;-78
2021/12/05 06:41:22;;;;;;;28.57;14.23;;;;;;;11.09;30.97;98926.34;5079259;28;20043;-78
2021/12/05 06:46:31;;;;;;;28.07;14.40;;;;;;;11.75;30.88;98934.38;5077217;28;20105;-77
2021/12/05 06:48:56;;;;;;;30.40;15.30;;;;;;;10.81;31.02;98906.66;5093452;28;20044;-77
2021/12/05 06:51:27;;;;;;;26.57;14.00;;;;;;;11.45;31.24;98935.34;5075065;28;20097;-78
2021/12/05 06:53:53;;;;;;;29.50;14.38;;;;;;;11.37;31.06;98933.59;5074729;28;20036;-77
2021/12/05 06:56:20;;;;;;;27.00;13.90;;;;;;;11.13;31.32;98927.66;5039812;28;20052;-79
2021/12/05 06:58:46;;;;;;;24.97;13.80;;;;;;;11.00;31.43;98933.56;5075247;28;20036;-78
2021/12/05 07:01:12;;;;;;;27.87;13.67;;;;;;;10.86;31.74;98944.09;5042207;28;20484;-77
2021/12/05 07:03:41;;;;;;;30.47;14.07;;;;;;;11.24;31.49;98938.66;5041454;28;20453;-77
2021/12/05 07:06:10;;;;;;;26.47;14.37;;;;;;;10.87;31.66;98945.78;5058273;28;20040;-77
2021/12/05 07:08:40;;;;;;;28.97;14.67;;;;;;;11.27;31.42;98956.09;5087833;28;20542;-78
2021/12/05 07:16:28;;;;;;;28.20;14.77;;;;;;;11.27;31.82;98962.22;5062217;28;20044;-78
2021/12/05 07:21:32;;;;;;;29.93;15.00;;;;;;;11.29;31.25;98952.25;5060013;28;20067;-76
2021/12/05 07:26:47;;;;;;;26.87;13.37;;;;;;;11.14;31.38;98958.53;5059843;28;20040;-77
2021/12/05 07:40:23;;;;;;;23.57;12.63;;;;;;;11.20;30.78;98977.25;5061525;28;20530;-77
2021/12/05 07:40:29;;;;;;;22.83;12.30;;;;;;;11.42;30.93;98968.41;5060652;28;20064;-75
2021/12/05 07:43:04;;;;;;;23.63;11.13;;;;;;;11.78;30.70;98984.56;5074435;28;20459;-71
2021/12/05 07:45:35;;;;;;;18.77;10.63;;;;;;;11.65;30.44;98965.75;5041993;28;20464;-73
2021/12/05 07:48:11;;;;;;;20.27;11.67;;;;;;;11.80;30.12;98961.28;5058310;28;20104;-75
2021/12/05 07:50:47;;;;;;;22.90;11.43;;;;;;;11.87;30.33;98972.84;5059186;28;20066;-75
2021/12/05 07:53:21;;;;;;;20.70;11.50;;;;;;;11.60;30.34;98971.59;5092951;28;20123;-74
2021/12/05 07:55:51;;;;;;;20.23;11.67;;;;;;;11.47;30.34;98973.22;5059370;28;20455;-72
2021/12/05 08:15:10;;;;;;;23.77;11.77;;;;;;;12.04;29.99;98971.66;5046362;28;20055;-74
2021/12/05 08:17:36;;;;;;;22.75;12.32;;;;;;;12.16;30.01;98978.19;5074730;28;20560;-74
2021/12/05 08:20:05;;;;;;;32.77;12.83;;;;;;;12.74;29.69;98980.78;5091365;28;20047;-74
2021/12/05 08:22:30;;;;;;;25.77;12.87;;;;;;;12.53;29.50;98970.06;5057218;28;20575;-74
2021/12/05 08:25:00;;;;;;;24.93;12.73;;;;;;;12.38;29.12;98974.59;5040797;28;20131;-75
2021/12/05 08:27:26;;;;;;;22.60;11.90;;;;;;;12.34;29.43;98978.63;5057935;28;20044;-75
2021/12/05 08:29:56;;;;;;;19.97;11.80;;;;;;;12.55;29.12;98975.19;5057820;28;20112;-74
2021/12/05 08:35:11;;;;;;;23.23;11.40;;;;;;;12.18;29.50;98954.06;5074440;28;20301;-75
2021/12/05 09:51:11;;;;;;;24.57;13.77;;;;;;;12.71;29.57;98993.63;5059009;28;20395;-75
2021/12/05 10:37:29;;;;;;;21.50;9.60;;;;;;;12.92;29.02;99001.66;4989006;28;20073;-76
2021/12/05 10:40:12;;;;;;;17.93;10.47;;;;;;;13.75;28.67;98991.19;4998423;28;20052;-75
2021/12/05 10:42:46;;;;;;;14.70;9.50;;;;;;;13.44;28.86;98999.56;5044334;28;20074;-76
2021/12/05 10:45:21;;;;;;;20.20;10.77;;;;;;;13.91;28.27;98997.09;5038848;28;20522;-76
2021/12/05 10:47:51;;;;;;;17.73;10.73;;;;;;;13.70;28.74;99006.97;5055091;28;20076;-76
2021/12/05 10:50:43;;;;;;;18.90;10.20;;;;;;;14.13;28.14;99000.53;5038148;28;20056;-76
2021/12/05 10:53:40;;;;;;;15.10;9.33;;;;;;;14.02;27.96;99009.91;5056349;28;20120;-76
2021/12/05 10:56:17;;;;;;;15.00;9.37;;;;;;;13.88;28.35;99005.50;5025129;28;20122;-76
2021/12/05 10:58:56;;;;;;;22.77;10.50;;;;;;;14.05;28.36;98992.66;5071999;28;20067;-76
2021/12/05 11:01:25;;;;;;;18.13;10.83;;;;;;;13.99;28.34;98996.13;5036866;28;20106;-76
2021/12/05 11:04:03;;;;;;;21.33;10.63;;;;;;;14.07;28.76;98999.44;5067232;28;20949;-76
2021/12/05 11:06:37;;;;;;;19.20;10.83;;;;;;;14.22;27.99;99015.38;5073371;28;20037;-76
2021/12/05 11:09:08;;;;;;;18.27;11.07;;;;;;;14.27;28.08;99000.41;5048161;28;20048;-76
2021/12/05 11:11:35;;;;;;;21.30;11.25;;;;;;;13.65;28.50;99006.72;5059087;28;20040;-76
2021/12/05 11:14:03;;;;;;;18.47;10.13;;;;;;;13.50;28.55;99004.97;5056491;28;20469;-78
2021/12/05 11:16:45;;;;;;;21.27;10.77;;;;;;;14.13;28.11;98987.16;5055445;28;20047;-77
2021/12/05 11:19:10;;;;;;;19.90;11.50;;;;;;;13.18;28.78;99017.97;5055427;28;20129;-76
2021/12/05 11:21:45;;;;;;;22.70;11.13;;;;;;;13.23;28.83;99020.91;5037799;28;20175;-77
2021/12/05 11:24:17;;;;;;;23.27;12.10;;;;;;;13.84;29.07;99014.88;5047506;28;20122;-76
2021/12/05 11:26:45;;;;;;;20.87;11.43;;;;;;;13.40;29.05;99023.16;5071335;28;20083;-76
2021/12/05 11:29:11;;;;;;;21.00;12.03;;;;;;;13.36;29.47;99034.38;5055001;28;20048;-76
2021/12/05 11:31:38;;;;;;;21.47;12.30;;;;;;;13.15;29.97;99021.03;5022478;28;20143;-76
2021/12/05 11:34:04;;;;;;;22.83;12.30;;;;;;;13.12;29.75;99030.22;5038499;28;20087;-76
2021/12/05 11:36:34;;;;;;;20.00;11.80;;;;;;;13.43;29.29;99033.44;5021671;28;20041;-77
2021/12/05 11:39:19;;;;;;;22.23;12.75;;;;;;;13.67;29.01;99036.72;5037465;28;20110;-77
2021/12/05 11:41:45;;;;;;;19.20;11.47;;;;;;;12.78;29.81;99042.50;5021130;28;20044;-79
2021/12/05 11:44:17;;;;;;;22.40;11.83;;;;;;;13.33;29.76;99032.91;5041924;28;20113;-78
2021/12/05 11:46:44;;;;;;;23.43;12.40;;;;;;;12.71;29.95;99033.59;5022565;28;20045;-78
2021/12/05 11:49:15;;;;;;;28.07;13.90;;;;;;;13.24;30.04;99033.22;5023513;28;20135;-77
2021/12/05 11:51:58;;;;;;;21.60;12.03;;;;;;;13.67;28.96;99032.19;5039399;28;20408;-77
2021/12/05 11:54:32;;;;;;;18.47;11.13;;;;;;;13.54;29.39;99032.09;5054538;28;20098;-75
2021/12/05 11:57:24;;;;;;;21.20;11.20;;;;;;;13.53;29.20;99041.09;5038862;28;20051;-77
2021/12/05 11:59:54;;;;;;;25.97;11.90;;;;;;;13.50;29.32;99034.31;5073518;28;20072;-78
2021/12/05 12:02:22;;;;;;;22.38;11.27;;;;;;;12.53;29.71;99020.66;5022024;28;20036;-78
2021/12/05 12:04:51;;;;;;;20.33;11.53;;;;;;;13.05;29.66;99017.84;5039130;28;20576;-78
2021/12/05 12:07:23;;;;;;;18.87;11.40;;;;;;;13.49;29.35;99032.66;5038885;28;20044;-78
2021/12/05 12:10:11;;;;;;;23.80;12.70;;;;;;;13.28;29.62;99043.31;5072782;28;20036;-78
2021/12/05 12:12:44;;;;;;;24.20;12.67;;;;;;;13.20;29.62;99016.78;5054137;28;20147;-78
2021/12/05 12:15:10;;;;;;;21.00;12.10;;;;;;;12.89;29.66;99021.53;5054309;28;20135;-78
2021/12/05 12:17:36;;;;;;;27.20;13.30;;;;;;;13.02;29.53;99039.56;5054511;28;20105;-78
2021/12/05 12:20:06;;;;;;;25.73;13.30;;;;;;;13.50;29.28;99039.63;5055553;28;20583;-75
2021/12/05 12:22:32;;;;;;;21.03;12.73;;;;;;;12.81;29.51;99042.94;5022093;28;20055;-78
2021/12/05 12:25:02;;;;;;;25.67;13.07;;;;;;;13.40;29.25;99041.81;5022689;28;20048;-78
2021/12/05 12:27:28;;;;;;;32.95;13.77;;;;;;;12.81;29.49;99036.78;5071622;28;20063;-78
2021/12/05 12:29:57;;;;;;;28.03;14.37;;;;;;;13.31;29.48;99050.97;5054457;28;20048;-78
2021/12/05 12:32:28;;;;;;;28.50;14.03;;;;;;;13.29;29.57;99042.31;5020958;28;20076;-77
2021/12/05 12:35:18;;;;;;;23.02;13.93;;;;;;;13.56;29.22;99057.56;5019633;28;20040;-78
2021/12/05 12:37:56;;;;;;;25.98;13.45;;;;;;;13.47;29.15;99064.03;5072597;28;20465;-78
2021/12/05 12:40:38;;;;;;;28.53;13.33;;;;;;;13.37;29.35;99044.03;5057268;28;20044;-77
2021/12/05 12:43:09;;;;;;;24.60;13.90;;;;;;;13.21;29.80;99066.44;5055623;28;20080;-78
2021/12/05 12:45:42;;;;;;;27.63;13.48;;;;;;;13.26;29.66;99058.69;5091860;28;20048;-78
2021/12/05 12:48:15;;;;;;;22.67;12.27;;;;;;;13.04;29.86;99057.00;5107363;28;20051;-78
2021/12/05 12:50:50;;;;;;;25.53;13.53;;;;;;;12.10;30.72;99050.78;5057872;28;20093;-78
2021/12/05 12:53:26;;;;;;;23.07;12.50;;;;;;;12.87;30.43;99047.53;5074465;28;20040;-78
2021/12/05 12:55:58;;;;;;;28.87;14.57;;;;;;;12.91;30.46;99064.00;5090407;28;20176;-78
2021/12/05 12:58:58;;;;;;;28.27;14.60;;;;;;;13.28;29.67;99061.97;5073109;28;20185;-78
2021/12/05 13:02:25;;;;;;;30.93;15.83;;;;;;;12.20;30.33;99046.03;5074921;28;20048;-78
2021/12/05 13:04:58;;;;;;;31.07;15.10;;;;;;;13.01;30.06;99067.19;5077337;28;20040;-78
2021/12/05 13:10:41;;;;;;;30.83;14.63;;;;;;;13.04;30.07;99081.00;5074950;28;20138;-78
2021/12/05 13:13:20;;;;;;;25.80;13.30;;;;;;;12.65;30.87;99075.16;5041757;28;20060;-77
2021/12/05 13:15:53;;;;;;;25.50;13.47;;;;;;;12.64;30.85;99078.81;5074404;28;20111;-78
2021/12/05 13:18:30;;;;;;;24.00;13.50;;;;;;;12.91;30.58;99077.31;5055143;28;20147;-78
2021/12/05 13:21:00;;;;;;;29.97;14.17;;;;;;;12.65;30.77;99071.66;5088540;28;20055;-77
2021/12/05 13:23:48;;;;;;;26.37;14.13;;;;;;;12.63;31.00;99079.81;5024346;28;20075;-78
2021/12/05 13:26:30;;;;;;;29.60;14.27;;;;;;;12.93;30.20;99078.75;5053245;28;20293;-78
2021/12/05 13:29:13;;;;;;;29.13;14.40;;;;;;;13.10;30.18;99080.25;5037319;28;20543;-78
2021/12/05 13:31:45;;;;;;;25.67;14.67;;;;;;;12.63;30.93;99085.16;5070670;28;20135;-78
2021/12/05 13:34:29;;;;;;;30.87;13.63;;;;;;;13.09;29.86;99094.59;5058325;28;20048;-78
2021/12/05 13:36:59;;;;;;;24.57;13.47;;;;;;;11.98;30.58;99076.19;5054437;28;20052;-78
2021/12/05 13:39:40;;;;;;;23.55;13.43;;;;;;;13.19;29.58;99089.78;5063383;28;20053;-78
2021/12/05 13:42:22;;;;;;;22.58;12.85;;;;;;;13.19;29.78;99094.31;5056537;28;20209;-78
2021/12/05 13:45:21;;;;;;;25.00;13.60;;;;;;;13.21;29.44;99097.59;5084579;28;20082;-77
2021/12/05 13:47:53;;;;;;;27.47;12.83;;;;;;;12.02;30.52;99098.78;5037156;28;20176;-77
2021/12/05 13:50:19;;;;;;;28.87;13.27;;;;;;;12.03;30.58;99105.75;5036936;28;20049;-77
2021/12/05 13:53:03;;;;;;;24.60;12.20;;;;;;;13.07;29.66;99115.28;5036417;28;20051;-77
2021/12/05 13:55:56;;;;;;;31.40;14.43;;;;;;;13.09;29.44;99112.41;5053445;28;20108;-77
2021/12/05 13:58:45;;;;;;;26.77;13.47;;;;;;;13.09;29.40;99121.25;5053946;28;20048;-77
2021/12/05 14:01:33;;;;;;;32.50;14.07;;;;;;;12.84;29.43;99090.53;5052589;28;20056;-78
2021/12/05 14:04:16;;;;;;;25.10;13.70;;;;;;;12.84;29.65;99108.41;5052879;28;20503;-77
2021/12/05 14:06:57;;;;;;;24.77;13.93;;;;;;;13.15;29.32;99125.84;5069827;28;20048;-77
2021/12/05 14:09:26;;;;;;;;;;;;;;;13.24;28.94;99118.53;5035813;28;20044;-78
2021/12/05 14:11:53;;;;;;;23.03;13.33;;;;;;;12.67;29.73;99129.06;5052752;28;19927;-77
2021/12/05 14:14:23;;;;;;;24.50;13.20;;;;;;;12.69;29.85;99119.03;5053500;28;20056;-77
2021/12/05 14:16:50;;;;;;;24.13;13.20;;;;;;;12.49;29.78;99117.09;5034714;28;20139;-77
2021/12/05 14:19:20;;;;;;;28.33;15.40;;;;;;;12.74;29.69;99110.50;5069870;28;20186;-77
2021/12/05 14:21:49;;;;;;;25.03;13.77;;;;;;;12.79;29.72;99114.25;5036101;28;20507;-77
2021/12/05 14:24:17;;;;;;;26.47;12.57;;;;;;;12.87;29.30;99126.69;5069924;28;20048;-78
2021/12/05 14:26:43;;;;;;;21.73;12.30;;;;;;;12.15;29.67;99122.94;5069650;28;20037;-77
2021/12/05 14:29:15;;;;;;;26.30;12.30;;;;;;;12.86;29.46;99128.50;5052340;28;20040;-77
2021/12/05 14:31:49;;;;;;;20.00;11.57;;;;;;;12.96;29.20;99131.69;5069453;28;20051;-77
2021/12/05 14:34:16;;;;;;;22.23;12.30;;;;;;;12.74;29.18;99130.00;5068939;28;20055;-77
2021/12/05 14:36:46;;;;;;;22.70;12.67;;;;;;;13.00;28.93;99125.03;5071973;28;20067;-77
2021/12/05 14:39:20;;;;;;;22.27;11.85;;;;;;;12.44;28.69;99117.66;5089465;28;20049;-77
2021/12/05 14:41:49;;;;;;;26.63;12.47;;;;;;;12.96;28.73;99141.56;5073512;28;20055;-77
2021/12/05 14:44:15;;;;;;;21.80;11.93;;;;;;;12.26;29.29;99142.97;5055777;28;20080;-76
2021/12/05 14:46:54;;;;;;;21.27;12.20;;;;;;;12.80;29.13;99129.25;5022606;28;20425;-77
2021/12/05 14:49:22;;;;;;;23.07;13.10;;;;;;;12.56;29.49;99144.69;5055776;28;20366;-76
2021/12/05 14:51:49;;;;;;;25.27;12.77;;;;;;;11.92;29.56;99130.13;5039741;28;20162;-76
2021/12/05 14:54:36;;;;;;;21.93;12.93;;;;;;;13.17;28.54;99154.97;5022123;28;20389;-77
2021/12/05 14:57:13;;;;;;;22.30;12.40;;;;;;;12.93;29.02;99137.41;5039223;28;20135;-76
2021/12/05 14:59:41;;;;;;;23.93;12.37;;;;;;;12.81;28.95;99156.69;5023536;28;20194;-77
2021/12/05 15:02:07;;;;;;;21.17;11.40;;;;;;;12.28;29.27;99163.09;5055219;28;20048;-77
2021/12/05 15:04:40;;;;;;;23.63;11.60;;;;;;;12.60;29.21;99161.94;5056242;28;20044;-76
2021/12/05 15:07:07;;;;;;;24.13;11.63;;;;;;;12.16;29.95;99161.88;5038911;28;20611;-77
2021/12/05 15:09:39;;;;;;;23.63;12.60;;;;;;;12.63;29.57;99167.75;5039857;28;20059;-76
2021/12/05 15:12:12;;;;;;;22.87;11.67;;;;;;;12.63;29.71;99156.25;5055308;28;20411;-76
2021/12/05 15:14:40;;;;;;;21.63;12.13;;;;;;;12.50;29.49;99158.72;5071625;28;20044;-76
2021/12/05 15:17:10;;;;;;;21.80;11.27;;;;;;;12.88;28.91;99163.81;5038674;28;20393;-76
2021/12/05 15:19:39;;;;;;;26.42;12.93;;;;;;;12.72;29.12;99158.66;5056061;28;20068;-76
2021/12/05 15:22:06;;;;;;;33.30;12.20;;;;;;;12.54;29.02;99163.50;5055357;28;20076;-77
2021/12/05 15:24:33;;;;;;;19.67;11.10;;;;;;;12.71;29.18;99174.81;5048801;28;20047;-76
2021/12/05 15:27:00;;;;;;;17.93;11.37;;;;;;;12.37;29.46;99164.66;5051817;28;20139;-76
2021/12/05 15:29:28;;;;;;;22.37;12.13;;;;;;;12.58;29.39;99175.44;5055118;28;20143;-76
2021/12/05 15:31:55;;;;;;;24.83;12.30;;;;;;;12.31;29.62;99136.09;5069327;28;20466;-77
2021/12/05 15:34:39;;;;;;;23.53;12.60;;;;;;;13.15;28.86;99162.34;5071790;28;20131;-77
2021/12/05 15:37:09;;;;;;;19.57;11.07;;;;;;;13.08;28.87;99172.94;5055167;28;20579;-76
2021/12/05 15:39:36;;;;;;;22.43;11.17;;;;;;;12.83;29.18;99168.00;5038252;28;20105;-77
2021/12/05 15:42:13;;;;;;;22.80;12.40;;;;;;;13.30;28.79;99165.78;5071141;28;20040;-76
2021/12/05 15:44:39;;;;;;;20.57;11.30;;;;;;;12.54;29.13;99168.84;5038728;28;20511;-76
2021/12/05 15:47:13;;;;;;;22.47;12.93;;;;;;;13.23;28.78;99164.91;5039239;28;20044;-76
2021/12/05 15:49:44;;;;;;;23.83;12.27;;;;;;;13.33;28.70;99171.59;5054866;28;20040;-76
2021/12/05 15:52:10;;;;;;;21.33;11.77;;;;;;;12.89;28.92;99170.78;5038815;28;20076;-76
2021/12/05 15:54:38;;;;;;;21.67;12.53;;;;;;;13.23;28.50;99176.41;5055273;28;20040;-76
2021/12/05 15:57:12;;;;;;;30.33;16.20;;;;;;;13.43;28.41;99189.97;5071834;28;20051;-75
2021/12/05 15:59:40;;;;;;;33.57;15.80;;;;;;;12.83;28.55;99186.66;5071980;28;20412;-76
2021/12/05 16:02:10;;;;;;;19.87;11.93;;;;;;;12.83;28.69;99179.50;5055867;28;20070;-76
2021/12/05 16:04:38;;;;;;;23.67;12.63;;;;;;;13.06;28.58;99190.09;5055609;28;20412;-76
2021/12/05 16:07:08;;;;;;;23.70;12.47;;;;;;;12.92;28.59;99178.41;5087185;28;20051;-75
2021/12/05 16:09:36;;;;;;;24.85;12.77;;;;;;;13.28;28.50;99181.19;5054438;28;20078;-75
2021/12/05 16:12:09;;;;;;;21.93;12.17;;;;;;;13.53;28.10;99170.00;5054036;28;20113;-75
2021/12/05 16:14:37;;;;;;;21.90;10.90;;;;;;;13.23;28.46;99173.75;5037038;28;20059;-76
2021/12/05 16:17:26;;;;;;;17.40;9.93;;;;;;;13.33;28.07;99186.78;5036078;28;20412;-75
2021/12/05 16:20:08;;;;;;;18.23;11.40;;;;;;;13.30;28.48;99181.81;5070211;28;20595;-77
2021/12/05 16:22:53;;;;;;;25.23;12.53;;;;;;;13.43;28.36;99196.16;5054698;28;20048;-76
2021/12/05 16:25:20;;;;;;;18.70;9.83;;;;;;;12.24;29.14;99177.75;5021151;28;20059;-78
2021/12/05 16:27:53;;;;;;;16.70;10.40;;;;;;;12.87;29.06;99206.63;5021474;28;20044;-79
2021/12/05 16:30:37;;;;;;;23.27;11.97;;;;;;;12.72;29.11;99201.28;5054619;28;20505;-78
2021/12/05 16:33:05;;;;;;;20.87;10.93;;;;;;;12.40;29.54;99208.75;5053503;28;20109;-77
2021/12/05 16:35:37;;;;;;;24.97;11.90;;;;;;;11.86;29.73;99224.81;5053588;28;20372;-73
2021/12/05 16:38:22;;;;;;;23.03;12.03;;;;;;;12.83;29.26;99206.16;5067483;28;20086;-75
2021/12/05 16:41:09;;;;;;;19.37;10.87;;;;;;;12.75;29.45;99214.25;5036696;28;20140;-78
2021/12/05 16:43:36;;;;;;;19.93;11.80;;;;;;;12.63;29.54;99218.34;5038024;28;20088;-77
2021/12/05 16:46:05;;;;;;;23.93;12.40;;;;;;;12.87;29.31;99218.09;5054225;28;20412;-77
2021/12/05 16:48:31;;;;;;;24.63;12.80;;;;;;;12.29;29.47;99215.31;5037172;28;20052;-77
2021/12/05 16:51:34;;;;;;;20.30;12.93;;;;;;;13.13;28.77;99229.16;5037334;28;20067;-78
2021/12/05 16:54:11;;;;;;;23.83;13.27;;;;;;;12.85;29.22;99220.16;5014873;28;20084;-78
2021/12/05 16:56:46;;;;;;;23.03;12.27;;;;;;;12.89;29.08;99242.75;5063229;28;20027;-76
2021/12/05 16:59:22;;;;;;;25.10;13.03;;;;;;;12.80;29.24;99233.19;5040490;28;20035;-77
2021/12/05 17:02:07;;;;;;;21.90;12.27;;;;;;;12.92;29.06;99234.38;5037509;28;20399;-74
2021/12/05 17:04:59;;;;;;;22.87;12.43;;;;;;;12.89;29.03;99241.91;5073398;28;20047;-74
2021/12/05 17:07:42;;;;;;;26.47;13.07;;;;;;;12.65;29.17;99229.66;5070503;28;20161;-75